Time;durP1;ratioP1;P1;durP2;ratioP2;P2;SDS_P1;SDS_P2;PMS_P1;PMS_P2;Temp;Humidity;BMP_temperature;BMP_pressure;BME280_temperature;BME280_humidity;BME280_pressure;Samples;Min_cycle;Max_cycle;Signal;HPM_P1;HPM_P2
2023/03/16 00:01:55;;;;;;;13.95;6.55;;;;;;;;;;5033021;28;20025;-75
2023/03/16 00:04:21;;;;;;;15.38;6.78;;;;;;;;;;5033000;28;20030;-74
2023/03/16 00:06:47;;;;;;;12.68;5.75;;;;;;;;;;5032973;28;20032;-75
2023/03/16 00:09:13;;;;;;;11.75;6.38;;;;;;;;;;5032678;28;20025;-74
2023/03/16 00:11:39;;;;;;;11.27;5.93;;;;;;;;;;5032834;28;20029;-74
2023/03/16 00:14:05;;;;;;;12.25;5.93;;;;;;;;;;5032790;28;20035;-74
2023/03/16 00:16:31;;;;;;;14.25;6.00;;;;;;;;;;5032653;28;20492;-73
2023/03/16 00:18:58;;;;;;;15.02;6.40;;;;;;;;;;5032597;28;20417;-74
2023/03/16 00:21:24;;;;;;;13.25;6.82;;;;;;;;;;5014950;28;20025;-74
2023/03/16 00:23:52;;;;;;;14.60;6.05;;;;;;;;;;5032448;28;20546;-75
2023/03/16 00:26:18;;;;;;;14.90;6.53;;;;;;;;;;5032578;28;20026;-75
2023/03/16 00:28:44;;;;;;;11.27;6.65;;;;;;;;;;5032409;28;20104;-74
2023/03/16 00:31:11;;;;;;;13.15;6.07;;;;;;;;;;5032595;28;20101;-74
2023/03/16 00:33:37;;;;;;;12.68;6.78;;;;;;;;;;5032501;28;20021;-75
2023/03/16 00:36:06;;;;;;;13.05;6.20;;;;;;;;;;5014677;28;20041;-74
2023/03/16 00:38:33;;;;;;;11.88;6.15;;;;;;;;;;5031944;28;20037;-75
2023/03/16 00:41:02;;;;;;;16.00;7.20;;;;;;;;;;5032695;28;20025;-74
2023/03/16 00:43:29;;;;;;;9.75;5.78;;;;;;;;;;5032202;28;20029;-74
2023/03/16 00:46:05;;;;;;;14.23;6.38;;;;;;;;;;5032097;28;20404;-74
2023/03/16 00:48:33;;;;;;;14.90;6.78;;;;;;;;;;5014308;28;20400;-73
2023/03/16 00:50:59;;;;;;;14.60;7.10;;;;;;;;;;5032662;28;20105;-73
2023/03/16 00:53:25;;;;;;;11.73;6.75;;;;;;;;;;5032070;28;20083;-73
2023/03/16 00:55:52;;;;;;;18.08;6.90;;;;;;;;;;5031982;28;20033;-73
2023/03/16 00:58:18;;;;;;;13.52;6.18;;;;;;;;;;5014293;28;20034;-73
2023/03/16 01:00:45;;;;;;;10.98;6.47;;;;;;;;;;5031782;28;20109;-74
2023/03/16 01:03:11;;;;;;;12.25;6.80;;;;;;;;;;5031963;28;20152;-74
2023/03/16 01:05:40;;;;;;;18.40;7.28;;;;;;;;;;5031455;28;20036;-73
2023/03/16 01:08:07;;;;;;;21.15;7.53;;;;;;;;;;5031799;28;20021;-74
2023/03/16 01:10:33;;;;;;;16.67;6.97;;;;;;;;;;5031663;28;20028;-74
2023/03/16 01:13:02;;;;;;;13.68;7.10;;;;;;;;;;5032172;28;20052;-74
2023/03/16 01:15:28;;;;;;;13.43;7.32;;;;;;;;;;5013778;28;20041;-73
2023/03/16 01:17:54;;;;;;;16.38;7.35;;;;;;;;;;5031332;28;20061;-72
2023/03/16 01:20:20;;;;;;;16.02;7.20;;;;;;;;;;5031816;28;20546;-73
2023/03/16 01:22:46;;;;;;;18.63;7.47;;;;;;;;;;5014178;28;20061;-73
2023/03/16 01:25:12;;;;;;;11.30;7.10;;;;;;;;;;5031583;28;20064;-73
2023/03/16 01:27:38;;;;;;;10.05;6.63;;;;;;;;;;5031590;28;20026;-73
2023/03/16 01:30:05;;;;;;;15.90;7.35;;;;;;;;;;5031570;28;20079;-74
2023/03/16 01:32:32;;;;;;;14.90;7.25;;;;;;;;;;5031633;28;20025;-74
2023/03/16 01:34:59;;;;;;;15.70;7.85;;;;;;;;;;5013883;28;20030;-74
2023/03/16 01:37:25;;;;;;;15.85;7.78;;;;;;;;;;5031362;28;20025;-74
2023/03/16 01:39:51;;;;;;;15.60;7.30;;;;;;;;;;5031531;28;20490;-74
2023/03/16 01:42:17;;;;;;;17.63;7.72;;;;;;;;;;5031417;28;20124;-73
2023/03/16 01:44:54;;;;;;;12.93;6.75;;;;;;;;;;5031412;28;20515;-74
2023/03/16 01:47:21;;;;;;;12.73;7.63;;;;;;;;;;5030971;28;20026;-74
2023/03/16 01:49:47;;;;;;;18.77;7.32;;;;;;;;;;5031422;28;20108;-73
2023/03/16 01:52:18;;;;;;;16.33;7.78;;;;;;;;;;5013625;28;20075;-73
2023/03/16 01:54:52;;;;;;;15.07;7.70;;;;;;;;;;5031520;28;20500;-74
2023/03/16 01:57:19;;;;;;;14.45;6.68;;;;;;;;;;5028999;28;20037;-72
2023/03/16 01:59:52;;;;;;;13.63;7.55;;;;;;;;;;5030890;28;20366;-73
2023/03/16 02:02:19;;;;;;;15.75;7.07;;;;;;;;;;5031310;28;20030;-75
2023/03/16 02:04:50;;;;;;;19.20;8.63;;;;;;;;;;5031314;28;20034;-73
2023/03/16 02:07:16;;;;;;;;;;;;;;;;;;5014194;28;20030;-73
2023/03/16 02:09:48;;;;;;;14.18;7.75;;;;;;;;;;5035258;28;19912;-74
2023/03/16 02:12:17;;;;;;;13.77;7.57;;;;;;;;;;5035037;28;20025;-75
2023/03/16 02:14:47;;;;;;;14.43;8.07;;;;;;;;;;5035160;28;20025;-74
2023/03/16 02:17:14;;;;;;;13.50;6.23;;;;;;;;;;5034662;28;20037;-74
2023/03/16 02:19:58;;;;;;;16.70;7.53;;;;;;;;;;5035299;28;20267;-74
2023/03/16 02:22:25;;;;;;;13.68;7.43;;;;;;;;;;5034963;28;20026;-75
2023/03/16 02:24:54;;;;;;;17.90;7.50;;;;;;;;;;5035163;28;20069;-74
2023/03/16 02:27:30;;;;;;;16.48;7.97;;;;;;;;;;5034840;28;20060;-74
2023/03/16 02:29:59;;;;;;;13.20;6.65;;;;;;;;;;5035020;28;20397;-73
2023/03/16 02:32:25;;;;;;;12.60;7.03;;;;;;;;;;5034717;28;20017;-73
2023/03/16 02:34:52;;;;;;;16.65;8.23;;;;;;;;;;5034800;28;20026;-74
2023/03/16 02:37:18;;;;;;;17.30;8.27;;;;;;;;;;5034370;28;20033;-73
2023/03/16 02:39:44;;;;;;;23.63;7.88;;;;;;;;;;5034607;28;20057;-74
2023/03/16 02:42:12;;;;;;;21.08;7.32;;;;;;;;;;5035059;28;20025;-73
2023/03/16 02:44:42;;;;;;;15.20;7.97;;;;;;;;;;5034377;28;20064;-71
2023/03/16 02:47:20;;;;;;;16.67;7.85;;;;;;;;;;5034232;28;20037;-72
2023/03/16 02:49:46;;;;;;;15.48;6.80;;;;;;;;;;5014540;28;20460;-72
2023/03/16 02:52:12;;;;;;;13.80;7.78;;;;;;;;;;5014583;28;20101;-73
2023/03/16 02:54:38;;;;;;;18.48;7.20;;;;;;;;;;5014619;28;20033;-72
2023/03/16 02:57:04;;;;;;;13.30;7.28;;;;;;;;;;5014235;28;20034;-72
2023/03/16 02:59:30;;;;;;;13.98;8.25;;;;;;;;;;5014374;28;20057;-73
2023/03/16 03:01:56;;;;;;;15.38;6.80;;;;;;;;;;5014535;28;20034;-73
2023/03/16 03:04:23;;;;;;;12.30;7.22;;;;;;;;;;5014176;28;20392;-73
2023/03/16 03:06:50;;;;;;;16.08;7.15;;;;;;;;;;5025693;28;20026;-72
2023/03/16 03:09:17;;;;;;;13.68;6.78;;;;;;;;;;5033757;28;20056;-74
2023/03/16 03:11:43;;;;;;;17.35;7.97;;;;;;;;;;5034034;28;20025;-71
2023/03/16 03:14:09;;;;;;;15.60;7.97;;;;;;;;;;5033939;28;20551;-73
2023/03/16 03:16:35;;;;;;;22.63;7.75;;;;;;;;;;5033636;28;20124;-73
2023/03/16 03:19:02;;;;;;;12.10;7.57;;;;;;;;;;5032336;28;20037;-72
2023/03/16 03:21:28;;;;;;;16.30;7.80;;;;;;;;;;5034138;28;20484;-72
2023/03/16 03:23:54;;;;;;;11.82;7.40;;;;;;;;;;5033995;28;20040;-73
2023/03/16 03:26:20;;;;;;;13.55;7.55;;;;;;;;;;5033703;28;20097;-73
2023/03/16 03:28:46;;;;;;;19.10;8.82;;;;;;;;;;5015715;28;20024;-74
2023/03/16 03:31:20;;;;;;;14.02;9.07;;;;;;;;;;5015827;28;20033;-73
2023/03/16 03:33:46;;;;;;;16.45;8.50;;;;;;;;;;5033985;28;20025;-72
2023/03/16 03:36:12;;;;;;;16.38;8.60;;;;;;;;;;5033899;28;20040;-74
2023/03/16 03:38:38;;;;;;;16.40;8.82;;;;;;;;;;5033369;28;20033;-73
2023/03/16 03:41:06;;;;;;;19.65;9.05;;;;;;;;;;5033627;28;20690;-73
2023/03/16 03:43:32;;;;;;;15.57;8.57;;;;;;;;;;5033630;28;20120;-73
2023/03/16 03:45:59;;;;;;;19.73;10.13;;;;;;;;;;5033071;28;20524;-72
2023/03/16 03:48:25;;;;;;;20.50;9.55;;;;;;;;;;5033244;28;20033;-73
2023/03/16 03:50:51;;;;;;;24.85;10.18;;;;;;;;;;5033300;28;20037;-73
2023/03/16 03:53:17;;;;;;;16.27;9.13;;;;;;;;;;5015598;28;20033;-73
2023/03/16 03:55:43;;;;;;;19.20;8.90;;;;;;;;;;5033155;28;20403;-73
2023/03/16 03:58:10;;;;;;;18.35;9.48;;;;;;;;;;5032989;28;20048;-73
2023/03/16 04:00:37;;;;;;;13.18;8.25;;;;;;;;;;5032883;28;20380;-75
2023/03/16 04:03:03;;;;;;;16.98;9.07;;;;;;;;;;5033518;28;20025;-73
2023/03/16 04:05:29;;;;;;;18.80;9.77;;;;;;;;;;5035842;28;20025;-74
2023/03/16 04:07:56;;;;;;;21.27;9.93;;;;;;;;;;5033992;28;20026;-74
2023/03/16 04:10:27;;;;;;;18.75;8.55;;;;;;;;;;5034738;28;20034;-72
2023/03/16 04:12:53;;;;;;;20.08;9.48;;;;;;;;;;5035498;28;20388;-72
2023/03/16 04:15:21;;;;;;;18.35;9.05;;;;;;;;;;5033387;28;20065;-69
2023/03/16 04:17:47;;;;;;;20.73;8.80;;;;;;;;;;5034086;28;20104;-73
2023/03/16 04:20:17;;;;;;;19.65;9.18;;;;;;;;;;5036910;28;20446;-73
2023/03/16 04:22:44;;;;;;;17.63;9.88;;;;;;;;;;5021906;28;20025;-75
2023/03/16 04:25:10;;;;;;;21.75;9.98;;;;;;;;;;5021171;28;20349;-72
2023/03/16 04:27:36;;;;;;;28.00;10.68;;;;;;;;;;5037638;28;20028;-71
2023/03/16 04:30:04;;;;;;;17.33;9.80;;;;;;;;;;5033677;28;20056;-72
2023/03/16 04:32:30;;;;;;;20.35;9.45;;;;;;;;;;5032726;28;20013;-73
2023/03/16 04:34:56;;;;;;;17.80;9.50;;;;;;;;;;5032505;28;20426;-72
2023/03/16 04:37:22;;;;;;;17.98;9.88;;;;;;;;;;5032439;28;20108;-71
2023/03/16 04:39:48;;;;;;;17.50;8.90;;;;;;;;;;5032395;28;20075;-72
2023/03/16 04:42:14;;;;;;;19.25;9.75;;;;;;;;;;5031957;28;20029;-72
2023/03/16 04:44:43;;;;;;;19.73;9.85;;;;;;;;;;5032349;28;20021;-71
2023/03/16 04:47:09;;;;;;;15.90;9.18;;;;;;;;;;5031824;28;20494;-72
2023/03/16 04:49:35;;;;;;;15.90;8.95;;;;;;;;;;5031856;28;20383;-73
2023/03/16 04:52:01;;;;;;;15.55;8.07;;;;;;;;;;5032123;28;20025;-72
2023/03/16 04:54:27;;;;;;;15.38;9.52;;;;;;;;;;5031943;28;20219;-72
2023/03/16 04:56:53;;;;;;;18.33;8.95;;;;;;;;;;5031783;28;20037;-74
2023/03/16 04:59:19;;;;;;;17.70;8.40;;;;;;;;;;5032001;28;20053;-72
2023/03/16 05:01:45;;;;;;;17.30;10.25;;;;;;;;;;5031935;28;20498;-74
2023/03/16 05:04:11;;;;;;;23.20;10.68;;;;;;;;;;5031994;28;20071;-74
2023/03/16 05:06:37;;;;;;;20.20;10.98;;;;;;;;;;5031774;28;20029;-73
2023/03/16 05:09:07;;;;;;;26.40;11.63;;;;;;;;;;5013913;28;20399;-73
2023/03/16 05:11:33;;;;;;;21.70;11.00;;;;;;;;;;5032076;28;20577;-73
2023/03/16 05:13:59;;;;;;;26.08;11.48;;;;;;;;;;5032017;28;20029;-74
2023/03/16 05:16:25;;;;;;;19.58;10.98;;;;;;;;;;5031730;28;20044;-74
2023/03/16 05:18:51;;;;;;;17.88;9.98;;;;;;;;;;5031398;28;20022;-74
2023/03/16 05:21:17;;;;;;;21.85;9.63;;;;;;;;;;5014493;28;20108;-75
2023/03/16 05:23:43;;;;;;;22.45;10.10;;;;;;;;;;5031605;28;20029;-74
2023/03/16 05:26:10;;;;;;;15.73;9.43;;;;;;;;;;5031572;28;20087;-75
2023/03/16 05:28:36;;;;;;;17.45;9.93;;;;;;;;;;5013774;28;20476;-72
2023/03/16 05:31:02;;;;;;;16.50;9.27;;;;;;;;;;5031820;28;20503;-74
2023/03/16 05:33:29;;;;;;;20.55;10.32;;;;;;;;;;5031453;28;20029;-74
2023/03/16 05:35:56;;;;;;;24.30;11.98;;;;;;;;;;5014078;28;20442;-71
2023/03/16 05:38:22;;;;;;;23.73;10.90;;;;;;;;;;5031171;28;20049;-72
2023/03/16 05:40:51;;;;;;;26.10;11.95;;;;;;;;;;5031487;28;20091;-72
2023/03/16 05:43:19;;;;;;;21.77;11.02;;;;;;;;;;5030630;28;20120;-72
2023/03/16 05:45:45;;;;;;;16.80;9.98;;;;;;;;;;5031825;28;20026;-73
2023/03/16 05:48:11;;;;;;;16.15;8.52;;;;;;;;;;5031335;28;20049;-72
2023/03/16 05:50:37;;;;;;;14.77;7.68;;;;;;;;;;5031707;28;20165;-73
2023/03/16 05:53:03;;;;;;;11.48;6.70;;;;;;;;;;5031796;28;20032;-74
2023/03/16 05:55:29;;;;;;;14.93;6.93;;;;;;;;;;5030922;28;20518;-73
2023/03/16 05:57:55;;;;;;;11.48;6.32;;;;;;;;;;5031123;28;20484;-73
2023/03/16 06:00:21;;;;;;;10.35;6.82;;;;;;;;;;5031340;28;20492;-72
2023/03/16 06:02:50;;;;;;;8.27;6.10;;;;;;;;;;5031382;28;20052;-73
2023/03/16 06:05:16;;;;;;;9.88;4.93;;;;;;;;;;5031080;28;20036;-74
2023/03/16 06:07:43;;;;;;;8.68;5.38;;;;;;;;;;5030970;28;20025;-74
2023/03/16 06:10:10;;;;;;;9.77;5.43;;;;;;;;;;5031023;28;20034;-74
2023/03/16 06:12:36;;;;;;;7.85;4.93;;;;;;;;;;5031227;28;20388;-71
2023/03/16 06:15:06;;;;;;;10.25;5.45;;;;;;;;;;5030697;28;20476;-69
2023/03/16 06:17:32;;;;;;;9.32;4.82;;;;;;;;;;5030478;28;20042;-71
2023/03/16 06:19:58;;;;;;;10.23;5.55;;;;;;;;;;5031184;28;20029;-73
2023/03/16 06:22:24;;;;;;;7.32;4.78;;;;;;;;;;5030531;28;20029;-74
2023/03/16 06:24:50;;;;;;;8.88;4.90;;;;;;;;;;5031138;28;20475;-73
2023/03/16 06:27:17;;;;;;;13.45;4.63;;;;;;;;;;5030693;28;20407;-73
2023/03/16 06:29:43;;;;;;;8.70;5.10;;;;;;;;;;5031177;28;20040;-75
2023/03/16 06:32:10;;;;;;;7.88;4.40;;;;;;;;;;5013299;28;20025;-75
2023/03/16 06:34:36;;;;;;;8.93;3.85;;;;;;;;;;5031180;28;20399;-74
2023/03/16 06:37:02;;;;;;;7.93;4.55;;;;;;;;;;5030668;28;20018;-74
2023/03/16 06:39:28;;;;;;;11.40;4.35;;;;;;;;;;5031117;28;20025;-74
2023/03/16 06:41:55;;;;;;;6.85;4.70;;;;;;;;;;5013141;28;20430;-74
2023/03/16 06:44:21;;;;;;;9.93;4.50;;;;;;;;;;5030869;28;20025;-75
2023/03/16 06:46:47;;;;;;;7.32;4.60;;;;;;;;;;5030890;28;20563;-75
2023/03/16 06:49:13;;;;;;;7.18;4.60;;;;;;;;;;5031034;28;20037;-75
2023/03/16 06:51:39;;;;;;;6.28;3.80;;;;;;;;;;5031443;28;20017;-75
2023/03/16 06:54:05;;;;;;;7.85;4.25;;;;;;;;;;5032650;28;20021;-75
2023/03/16 06:56:30;;;;;;;5.32;3.97;;;;;;;;;;5034707;28;20079;-76
2023/03/16 06:58:57;;;;;;;5.65;4.30;;;;;;;;;;5016478;28;20484;-74
2023/03/16 07:01:23;;;;;;;6.97;4.10;;;;;;;;;;5034769;28;20163;-75
2023/03/16 07:03:49;;;;;;;9.93;4.60;;;;;;;;;;5034514;28;20041;-75
2023/03/16 07:06:16;;;;;;;10.38;4.90;;;;;;;;;;5035514;28;20057;-73
2023/03/16 07:08:42;;;;;;;11.82;5.25;;;;;;;;;;5034878;28;20021;-74
2023/03/16 07:11:08;;;;;;;12.75;4.60;;;;;;;;;;5035022;28;20474;-73
2023/03/16 07:13:34;;;;;;;7.28;4.65;;;;;;;;;;5034361;28;20018;-75
2023/03/16 07:16:00;;;;;;;7.97;5.07;;;;;;;;;;5033670;28;20041;-74
2023/03/16 07:18:29;;;;;;;9.82;4.72;;;;;;;;;;5033595;28;20041;-74
2023/03/16 07:20:55;;;;;;;11.18;4.50;;;;;;;;;;5034117;28;20018;-74
2023/03/16 07:23:21;;;;;;;8.05;4.60;;;;;;;;;;5034586;28;20041;-75
2023/03/16 07:25:47;;;;;;;10.93;5.03;;;;;;;;;;5034163;28;20048;-75
2023/03/16 07:28:13;;;;;;;10.60;6.32;;;;;;;;;;5034048;28;20030;-76
2023/03/16 07:30:39;;;;;;;10.93;6.60;;;;;;;;;;5015967;28;20075;-76
2023/03/16 07:33:05;;;;;;;9.85;5.72;;;;;;;;;;5033858;28;20056;-74
2023/03/16 07:35:31;;;;;;;11.57;5.07;;;;;;;;;;5033270;28;20056;-71
2023/03/16 07:37:57;;;;;;;10.55;4.95;;;;;;;;;;5033658;28;20041;-74
2023/03/16 07:40:23;;;;;;;11.32;5.60;;;;;;;;;;5033754;28;20040;-74
2023/03/16 07:42:49;;;;;;;7.45;4.70;;;;;;;;;;5033510;28;20029;-74
2023/03/16 07:45:16;;;;;;;5.00;3.70;;;;;;;;;;5033390;28;20120;-75
2023/03/16 07:47:43;;;;;;;9.70;4.57;;;;;;;;;;5033073;28;20096;-74
2023/03/16 07:50:10;;;;;;;8.75;4.40;;;;;;;;;;5033430;28;20024;-74
2023/03/16 07:52:36;;;;;;;10.82;4.07;;;;;;;;;;5015700;28;20403;-71
2023/03/16 07:55:02;;;;;;;7.85;4.20;;;;;;;;;;5033181;28;20025;-74
2023/03/16 07:57:28;;;;;;;7.72;4.45;;;;;;;;;;5032726;28;20026;-74
2023/03/16 07:59:55;;;;;;;10.95;4.93;;;;;;;;;;5033094;28;20026;-74
2023/03/16 08:02:21;;;;;;;8.02;4.63;;;;;;;;;;5033127;28;20037;-72
2023/03/16 08:04:47;;;;;;;9.68;4.68;;;;;;;;;;5032511;28;20041;-74
2023/03/16 08:07:14;;;;;;;9.07;4.50;;;;;;;;;;5032162;28;20053;-75
2023/03/16 08:09:40;;;;;;;8.73;4.57;;;;;;;;;;5033297;28;20487;-73
2023/03/16 08:12:07;;;;;;;8.20;5.28;;;;;;;;;;5032956;28;20021;-73
2023/03/16 08:14:34;;;;;;;9.52;5.07;;;;;;;;;;5032842;28;20030;-74
2023/03/16 08:17:04;;;;;;;10.00;4.30;;;;;;;;;;5032512;28;20056;-75
2023/03/16 08:19:31;;;;;;;7.78;4.38;;;;;;;;;;5032774;28;20026;-75
2023/03/16 08:21:59;;;;;;;9.18;4.47;;;;;;;;;;5015058;28;20021;-73
2023/03/16 08:24:26;;;;;;;11.93;5.18;;;;;;;;;;5031946;28;20038;-75
2023/03/16 08:26:52;;;;;;;8.38;4.80;;;;;;;;;;5030304;28;20071;-75
2023/03/16 08:29:18;;;;;;;10.20;4.80;;;;;;;;;;5032277;28;20026;-76
2023/03/16 08:31:44;;;;;;;9.05;4.32;;;;;;;;;;5032428;28;20388;-74
2023/03/16 08:34:10;;;;;;;7.68;3.92;;;;;;;;;;5032871;28;20075;-76
2023/03/16 08:36:37;;;;;;;7.20;4.05;;;;;;;;;;5032143;28;20056;-76
2023/03/16 08:39:06;;;;;;;9.35;4.60;;;;;;;;;;5032221;28;20026;-74
2023/03/16 08:41:33;;;;;;;7.75;4.30;;;;;;;;;;5032361;28;20040;-75
2023/03/16 08:43:59;;;;;;;9.05;4.70;;;;;;;;;;5032677;28;20021;-75
2023/03/16 08:46:25;;;;;;;12.90;4.63;;;;;;;;;;5031602;28;20476;-74
2023/03/16 08:48:54;;;;;;;9.98;4.75;;;;;;;;;;5027184;28;20072;-75
2023/03/16 08:51:20;;;;;;;8.68;4.72;;;;;;;;;;5032345;28;20368;-75
2023/03/16 08:53:46;;;;;;;8.52;4.47;;;;;;;;;;5014481;28;20021;-73
2023/03/16 08:56:13;;;;;;;10.73;4.63;;;;;;;;;;5014204;28;20059;-74
2023/03/16 08:58:44;;;;;;;8.07;4.45;;;;;;;;;;5031411;28;20521;-75
2023/03/16 09:01:11;;;;;;;7.57;4.43;;;;;;;;;;5014524;28;20033;-74
2023/03/16 09:03:37;;;;;;;7.75;3.95;;;;;;;;;;5032234;28;20033;-75
2023/03/16 09:06:05;;;;;;;13.60;4.10;;;;;;;;;;5031880;28;20013;-75
2023/03/16 09:08:31;;;;;;;8.20;3.70;;;;;;;;;;5031852;28;20022;-74
2023/03/16 09:11:07;;;;;;;8.55;4.47;;;;;;;;;;5031994;28;20052;-74
2023/03/16 09:13:34;;;;;;;8.57;3.97;;;;;;;;;;5031838;28;20422;-74
2023/03/16 09:16:00;;;;;;;11.10;4.20;;;;;;;;;;5031606;28;20037;-74
2023/03/16 09:18:26;;;;;;;8.73;3.65;;;;;;;;;;5030719;28;20025;-74
2023/03/16 09:21:02;;;;;;;8.38;3.65;;;;;;;;;;5031800;28;20029;-75
2023/03/16 09:23:28;;;;;;;6.88;3.05;;;;;;;;;;5031515;28;20057;-75
2023/03/16 09:25:58;;;;;;;9.20;3.53;;;;;;;;;;5031532;28;20021;-75
2023/03/16 09:28:26;;;;;;;8.35;3.30;;;;;;;;;;5031453;28;20063;-74
2023/03/16 09:30:53;;;;;;;5.80;3.20;;;;;;;;;;5031620;28;20017;-75
2023/03/16 09:33:20;;;;;;;10.35;3.75;;;;;;;;;;5013943;28;20021;-74
2023/03/16 09:35:46;;;;;;;7.93;2.75;;;;;;;;;;5031434;28;20033;-74
2023/03/16 09:38:12;;;;;;;7.38;2.70;;;;;;;;;;5031718;28;20037;-74
2023/03/16 09:40:40;;;;;;;6.22;3.00;;;;;;;;;;5032459;28;20376;-75
2023/03/16 09:43:24;;;;;;;8.80;3.05;;;;;;;;;;5040677;28;20018;-74
2023/03/16 09:46:07;;;;;;;6.90;2.83;;;;;;;;;;5023839;28;20034;-73
2023/03/16 09:48:35;;;;;;;6.80;2.83;;;;;;;;;;5042012;28;20033;-74
2023/03/16 09:51:03;;;;;;;7.38;3.25;;;;;;;;;;5035103;28;20022;-72
2023/03/16 09:53:38;;;;;;;6.53;3.00;;;;;;;;;;5031500;28;20022;-73
2023/03/16 09:56:23;;;;;;;6.57;2.58;;;;;;;;;;5014182;28;20034;-73
2023/03/16 09:59:07;;;;;;;10.80;3.08;;;;;;;;;;5030899;28;20029;-74
2023/03/16 10:01:34;;;;;;;7.20;2.90;;;;;;;;;;5031453;28;20033;-73
2023/03/16 10:04:09;;;;;;;7.90;3.28;;;;;;;;;;5031334;28;20553;-73
2023/03/16 10:07:02;;;;;;;5.93;3.13;;;;;;;;;;5031390;28;20029;-74
2023/03/16 10:09:31;;;;;;;6.93;2.58;;;;;;;;;;5013933;28;20045;-73
2023/03/16 10:12:07;;;;;;;7.18;2.80;;;;;;;;;;5031474;28;20018;-74
2023/03/16 10:14:53;;;;;;;6.88;2.78;;;;;;;;;;5031173;28;20029;-72
2023/03/16 10:17:26;;;;;;;5.25;2.42;;;;;;;;;;5030957;28;20460;-74
2023/03/16 10:19:56;;;;;;;10.60;2.85;;;;;;;;;;5031366;28;20040;-74
2023/03/16 10:22:27;;;;;;;6.55;3.00;;;;;;;;;;5031087;28;20487;-74
2023/03/16 10:25:02;;;;;;;8.88;2.67;;;;;;;;;;5031103;28;20029;-73
2023/03/16 10:27:33;;;;;;;8.13;2.75;;;;;;;;;;5031120;28;20112;-74
2023/03/16 10:30:01;;;;;;;6.70;2.45;;;;;;;;;;5035332;28;20025;-74
2023/03/16 10:32:31;;;;;;;6.75;2.70;;;;;;;;;;5035069;28;20026;-73
2023/03/16 10:35:15;;;;;;;6.07;2.28;;;;;;;;;;5034750;28;20403;-74
2023/03/16 10:37:41;;;;;;;6.13;1.90;;;;;;;;;;5016932;28;20029;-73
2023/03/16 10:40:11;;;;;;;6.65;2.25;;;;;;;;;;5034736;28;20025;-74
2023/03/16 10:42:37;;;;;;;5.57;1.98;;;;;;;;;;5034415;28;20480;-74
2023/03/16 10:45:03;;;;;;;6.13;1.95;;;;;;;;;;5034403;28;20065;-73
2023/03/16 10:47:33;;;;;;;3.70;1.45;;;;;;;;;;5034608;28;20025;-73
2023/03/16 10:50:10;;;;;;;9.02;2.25;;;;;;;;;;5034585;28;20021;-73
2023/03/16 10:52:50;;;;;;;4.65;1.95;;;;;;;;;;5034724;28;20030;-73
2023/03/16 10:55:19;;;;;;;7.63;2.72;;;;;;;;;;5034473;28;20032;-73
2023/03/16 10:57:50;;;;;;;5.68;2.08;;;;;;;;;;5034183;28;20025;-73
2023/03/16 11:00:20;;;;;;;6.70;2.08;;;;;;;;;;5034179;28;20025;-72
2023/03/16 11:02:49;;;;;;;6.20;2.15;;;;;;;;;;5034425;28;20057;-74
2023/03/16 11:05:19;;;;;;;6.20;2.13;;;;;;;;;;5033999;28;20501;-73
2023/03/16 11:07:58;;;;;;;3.35;1.98;;;;;;;;;;5033794;28;20018;-74
2023/03/16 11:10:32;;;;;;;9.27;2.53;;;;;;;;;;5034155;28;20017;-74
2023/03/16 11:13:02;;;;;;;5.95;2.05;;;;;;;;;;5034079;28;20496;-73
2023/03/16 11:15:35;;;;;;;5.75;2.00;;;;;;;;;;5033806;28;20044;-73
2023/03/16 11:18:02;;;;;;;5.80;1.80;;;;;;;;;;5033558;28;20025;-73
2023/03/16 11:20:30;;;;;;;6.63;1.60;;;;;;;;;;5034128;28;20037;-72
2023/03/16 11:22:57;;;;;;;3.08;1.20;;;;;;;;;;5015974;28;20068;-74
2023/03/16 11:25:32;;;;;;;3.80;0.93;;;;;;;;;;5033989;28;20037;-74
2023/03/16 11:27:58;;;;;;;3.22;1.10;;;;;;;;;;5033877;28;20030;-74
2023/03/16 11:30:29;;;;;;;4.25;1.33;;;;;;;;;;5034163;28;20036;-74
2023/03/16 11:32:59;;;;;;;6.70;1.60;;;;;;;;;;5034151;28;20029;-76
2023/03/16 11:35:33;;;;;;;8.02;1.70;;;;;;;;;;5033598;28;20026;-73
2023/03/16 11:38:17;;;;;;;6.90;1.63;;;;;;;;;;5034269;28;20036;-72
2023/03/16 11:41:01;;;;;;;3.88;1.48;;;;;;;;;;5032513;28;20025;-71
2023/03/16 11:43:38;;;;;;;4.35;1.13;;;;;;;;;;5016039;28;20045;-74
2023/03/16 11:46:30;;;;;;;7.15;1.23;;;;;;;;;;5033676;28;20026;-73
2023/03/16 11:48:56;;;;;;;3.78;1.00;;;;;;;;;;5012212;28;20030;-73
2023/03/16 11:51:25;;;;;;;3.25;1.27;;;;;;;;;;5033254;28;20025;-75
2023/03/16 11:53:56;;;;;;;5.93;1.48;;;;;;;;;;5033537;28;20071;-73
2023/03/16 11:56:37;;;;;;;2.88;1.45;;;;;;;;;;5033135;28;20025;-73
2023/03/16 11:59:10;;;;;;;6.38;1.30;;;;;;;;;;5033313;28;20033;-75
2023/03/16 12:01:58;;;;;;;6.68;1.27;;;;;;;;;;5032999;28;20034;-73
2023/03/16 12:04:35;;;;;;;9.52;1.63;;;;;;;;;;5033602;28;20029;-74
2023/03/16 12:07:20;;;;;;;6.15;1.35;;;;;;;;;;5032893;28;20365;-75
2023/03/16 12:09:56;;;;;;;4.32;1.15;;;;;;;;;;5033060;28;20148;-74
2023/03/16 12:12:29;;;;;;;6.65;1.88;;;;;;;;;;5033079;28;20029;-74
2023/03/16 12:15:15;;;;;;;4.22;1.55;;;;;;;;;;5034511;28;20034;-73
2023/03/16 12:17:42;;;;;;;3.53;1.45;;;;;;;;;;5044522;28;20064;-74
2023/03/16 12:20:14;;;;;;;5.95;1.55;;;;;;;;;;5046164;28;20029;-72
2023/03/16 12:22:45;;;;;;;5.03;1.65;;;;;;;;;;5041780;28;20025;-75
2023/03/16 12:25:23;;;;;;;6.05;1.58;;;;;;;;;;5046066;28;20036;-73
2023/03/16 12:27:53;;;;;;;5.90;1.52;;;;;;;;;;5044181;28;20017;-75
2023/03/16 12:30:19;;;;;;;8.90;2.53;;;;;;;;;;5046551;28;20484;-74
2023/03/16 12:32:52;;;;;;;4.25;1.30;;;;;;;;;;5045145;28;20039;-80
2023/03/16 12:35:32;;;;;;;5.50;1.30;;;;;;;;;;5037772;28;20435;-75
2023/03/16 12:38:11;;;;;;;4.35;1.55;;;;;;;;;;5032406;28;20034;-74
2023/03/16 12:40:48;;;;;;;8.73;1.77;;;;;;;;;;5033992;28;20036;-74
2023/03/16 12:43:17;;;;;;;3.20;1.65;;;;;;;;;;5031320;28;20104;-74
2023/03/16 12:45:52;;;;;;;5.15;1.33;;;;;;;;;;5032539;28;20104;-74
2023/03/16 12:48:21;;;;;;;4.55;1.40;;;;;;;;;;5032565;28;20068;-74
2023/03/16 12:50:49;;;;;;;3.65;1.15;;;;;;;;;;5014625;28;20225;-72
2023/03/16 12:53:25;;;;;;;5.95;1.67;;;;;;;;;;5032131;28;20068;-73
2023/03/16 12:55:52;;;;;;;4.30;1.30;;;;;;;;;;5032096;28;20495;-74
2023/03/16 12:58:18;;;;;;;6.68;1.48;;;;;;;;;;5032202;28;20034;-75
2023/03/16 13:00:44;;;;;;;2.92;1.20;;;;;;;;;;5032705;28;20029;-74
2023/03/16 13:03:15;;;;;;;3.25;1.17;;;;;;;;;;5032254;28;20025;-77
2023/03/16 13:05:46;;;;;;;3.05;1.15;;;;;;;;;;5032198;28;20025;-74
2023/03/16 13:08:12;;;;;;;;;;;;;;;;;;5032934;28;20057;-73
2023/03/16 13:10:38;;;;;;;5.85;2.08;;;;;;;;;;5033443;28;19920;-75
2023/03/16 13:13:13;;;;;;;4.57;1.20;;;;;;;;;;5018167;28;20112;-74
2023/03/16 13:15:40;;;;;;;5.22;1.42;;;;;;;;;;5036922;28;20053;-74
2023/03/16 13:18:09;;;;;;;5.28;1.30;;;;;;;;;;5035944;28;20534;-76
2023/03/16 13:20:48;;;;;;;5.32;1.55;;;;;;;;;;5034675;28;20250;-73
2023/03/16 13:23:17;;;;;;;3.47;1.40;;;;;;;;;;5014051;28;20076;-73
2023/03/16 13:25:45;;;;;;;5.25;1.50;;;;;;;;;;5031626;28;20100;-73
2023/03/16 13:28:15;;;;;;;3.58;1.55;;;;;;;;;;5031539;28;20376;-73
2023/03/16 13:30:47;;;;;;;9.30;2.10;;;;;;;;;;5031676;28;20024;-73
2023/03/16 13:33:13;;;;;;;;;;;;;;;;;;5032026;28;20033;-74
2023/03/16 13:35:40;;;;;;;2.90;1.10;;;;;;;;;;5031850;28;19905;-74
2023/03/16 13:38:06;;;;;;;4.43;1.23;;;;;;;;;;5031593;28;20533;-74
2023/03/16 13:40:36;;;;;;;5.10;1.63;;;;;;;;;;5032068;28;20052;-75
2023/03/16 13:43:02;;;;;;;5.00;1.73;;;;;;;;;;5032152;28;20029;-75
2023/03/16 13:45:33;;;;;;;5.07;1.92;;;;;;;;;;5031661;28;20267;-74
2023/03/16 13:48:02;;;;;;;5.80;1.63;;;;;;;;;;5031859;28;20080;-74
2023/03/16 13:50:32;;;;;;;4.35;1.77;;;;;;;;;;5031458;28;20983;-74
2023/03/16 13:53:10;;;;;;;4.15;1.75;;;;;;;;;;5031824;28;20037;-74
2023/03/16 13:55:37;;;;;;;3.65;1.60;;;;;;;;;;5031572;28;20108;-74
2023/03/16 13:58:04;;;;;;;4.95;1.63;;;;;;;;;;5031000;28;20491;-72
2023/03/16 14:00:31;;;;;;;4.57;1.70;;;;;;;;;;5031179;28;20030;-72
2023/03/16 14:03:02;;;;;;;6.22;1.60;;;;;;;;;;5031298;28;20087;-77
2023/03/16 14:05:34;;;;;;;3.22;1.50;;;;;;;;;;5035688;28;20106;-74
2023/03/16 14:08:00;;;;;;;5.78;1.90;;;;;;;;;;5035307;28;20018;-75
2023/03/16 14:10:34;;;;;;;4.82;1.52;;;;;;;;;;5035733;28;20021;-74
2023/03/16 14:13:22;;;;;;;4.95;1.80;;;;;;;;;;5035247;28;20048;-75
2023/03/16 14:15:49;;;;;;;2.92;1.98;;;;;;;;;;5035173;28;20088;-75
2023/03/16 14:18:20;;;;;;;8.77;2.10;;;;;;;;;;5035041;28;20602;-74
2023/03/16 14:20:53;;;;;;;6.57;1.85;;;;;;;;;;5035018;28;20549;-75
2023/03/16 14:23:24;;;;;;;6.10;1.85;;;;;;;;;;5035100;28;20041;-73
2023/03/16 14:25:52;;;;;;;7.00;1.80;;;;;;;;;;5035066;28;20057;-75
2023/03/16 14:28:19;;;;;;;2.35;1.42;;;;;;;;;;5034781;28;20032;-76
2023/03/16 14:31:01;;;;;;;9.23;2.00;;;;;;;;;;5034884;28;20534;-75
2023/03/16 14:33:28;;;;;;;7.15;1.65;;;;;;;;;;5035008;28;20495;-75
2023/03/16 14:35:55;;;;;;;6.18;2.13;;;;;;;;;;5034632;28;20051;-74
2023/03/16 14:38:31;;;;;;;4.45;1.92;;;;;;;;;;5034419;28;20096;-74
2023/03/16 14:41:02;;;;;;;8.13;2.33;;;;;;;;;;5034803;28;20651;-74
2023/03/16 14:43:30;;;;;;;5.60;2.05;;;;;;;;;;5034941;28;20384;-75
2023/03/16 14:45:57;;;;;;;7.22;1.95;;;;;;;;;;5034676;28;20494;-73